LAN3201 SYCJ-SVMI
Flight info
| Callsign | LAN3201 |
|---|---|
| Flight time | N/A |
| Altitude | 24000 |
| Route | LIKEV G443 AKROK/N0454F360 UG443 CBC |
| Aircraft | A320/M-SDE3FGHIRWY/LB1 |
Departure
| Time | N/A |
|---|---|
| Airport | Cheddi Jagan International Airport (SYCJ) |
Arrival
| Time | 2026-05-06 22:33 |
|---|---|
| Airport | Maiquetía Simón Bolívar International Airport (SVMI) |
| Time | Latitude | Longitude | Altitude | Speed | Heading |
|---|---|---|---|---|---|
| 2026-05-06 22:19 | 10.73818 | -66.83830 | 10490 ft | 353 kts | 258° |
| 2026-05-06 22:19 | 10.73401 | -66.86248 | 10374 ft | 341 kts | 258° |
| 2026-05-06 22:19 | 10.72999 | -66.88587 | 10256 ft | 330 kts | 258° |
| 2026-05-06 22:20 | 10.72741 | -66.90867 | 10141 ft | 320 kts | 268° |
| 2026-05-06 22:20 | 10.72742 | -66.93076 | 9876 ft | 307 kts | 268° |
| 2026-05-06 22:20 | 10.72741 | -66.95229 | 9380 ft | 302 kts | 268° |
| 2026-05-06 22:20 | 10.72735 | -66.97343 | 8993 ft | 295 kts | 267° |
| 2026-05-06 22:21 | 10.72727 | -66.99423 | 8774 ft | 294 kts | 268° |
| 2026-05-06 22:21 | 10.72720 | -67.01494 | 8512 ft | 292 kts | 267° |
| 2026-05-06 22:21 | 10.72715 | -67.03551 | 8251 ft | 290 kts | 268° |
| 2026-05-06 22:21 | 10.72711 | -67.05594 | 7988 ft | 289 kts | 268° |
| 2026-05-06 22:22 | 10.72708 | -67.07630 | 7725 ft | 287 kts | 268° |
| 2026-05-06 22:22 | 10.72704 | -67.09654 | 7461 ft | 286 kts | 268° |
| 2026-05-06 22:22 | 10.72698 | -67.11667 | 7197 ft | 284 kts | 268° |
| 2026-05-06 22:22 | 10.72692 | -67.13672 | 6943 ft | 283 kts | 267° |
| 2026-05-06 22:23 | 10.72687 | -67.15661 | 6689 ft | 280 kts | 268° |
| 2026-05-06 22:23 | 10.72683 | -67.17643 | 6431 ft | 280 kts | 267° |
| 2026-05-06 22:23 | 10.72680 | -67.19613 | 6172 ft | 278 kts | 267° |
| 2026-05-06 22:23 | 10.72677 | -67.21579 | 5892 ft | 278 kts | 268° |
| 2026-05-06 22:24 | 10.72684 | -67.23541 | 5589 ft | 276 kts | 269° |
| 2026-05-06 22:24 | 10.72697 | -67.25488 | 5294 ft | 275 kts | 269° |
| 2026-05-06 22:24 | 10.72712 | -67.27445 | 4954 ft | 273 kts | 269° |
| 2026-05-06 22:24 | 10.72674 | -67.29362 | 4599 ft | 270 kts | 259° |
| 2026-05-06 22:25 | 10.72022 | -67.31116 | 4206 ft | 265 kts | 233° |
| 2026-05-06 22:25 | 10.70716 | -67.32385 | 4024 ft | 259 kts | 207° |
| 2026-05-06 22:25 | 10.69024 | -67.32984 | 4030 ft | 259 kts | 183° |
| 2026-05-06 22:25 | 10.67288 | -67.32836 | 4023 ft | 243 kts | 160° |
| 2026-05-06 22:26 | 10.65873 | -67.32060 | 4027 ft | 223 kts | 137° |
| 2026-05-06 22:26 | 10.64784 | -67.31002 | 4025 ft | 213 kts | 134° |
| 2026-05-06 22:26 | 10.63718 | -67.29956 | 4027 ft | 212 kts | 134° |
| 2026-05-06 22:26 | 10.62658 | -67.28920 | 4030 ft | 209 kts | 135° |
| 2026-05-06 22:27 | 10.61641 | -67.27931 | 4021 ft | 196 kts | 134° |
| 2026-05-06 22:27 | 10.60671 | -67.26989 | 4025 ft | 191 kts | 134° |
| 2026-05-06 22:27 | 10.59908 | -67.25901 | 4026 ft | 190 kts | 112° |
| 2026-05-06 22:27 | 10.59615 | -67.24606 | 4024 ft | 189 kts | 90° |
| 2026-05-06 22:28 | 10.59655 | -67.23265 | 4028 ft | 191 kts | 88° |
| 2026-05-06 22:28 | 10.59701 | -67.21897 | 3986 ft | 196 kts | 88° |
| 2026-05-06 22:28 | 10.59746 | -67.20545 | 3756 ft | 186 kts | 88° |
| 2026-05-06 22:28 | 10.59788 | -67.19280 | 3543 ft | 173 kts | 88° |
| 2026-05-06 22:29 | 10.59826 | -67.18106 | 3334 ft | 158 kts | 88° |
| 2026-05-06 22:29 | 10.59862 | -67.17022 | 3128 ft | 152 kts | 88° |
| 2026-05-06 22:29 | 10.59897 | -67.15955 | 2939 ft | 150 kts | 88° |
| 2026-05-06 22:29 | 10.59931 | -67.14898 | 2744 ft | 150 kts | 88° |
| 2026-05-06 22:30 | 10.59966 | -67.13842 | 2574 ft | 150 kts | 87° |
| 2026-05-06 22:30 | 10.60001 | -67.12781 | 2385 ft | 151 kts | 88° |
| 2026-05-06 22:30 | 10.60050 | -67.11718 | 2223 ft | 149 kts | 88° |
| 2026-05-06 22:30 | 10.60080 | -67.10663 | 2047 ft | 150 kts | 91° |
| 2026-05-06 22:31 | 10.60107 | -67.09599 | 1824 ft | 151 kts | 89° |
| 2026-05-06 22:31 | 10.60152 | -67.08534 | 1604 ft | 150 kts | 89° |
| 2026-05-06 22:31 | 10.60171 | -67.07480 | 1417 ft | 149 kts | 91° |
| 2026-05-06 22:31 | 10.60198 | -67.06427 | 1201 ft | 146 kts | 88° |
| 2026-05-06 22:32 | 10.60247 | -67.05409 | 1003 ft | 145 kts | 88° |
| 2026-05-06 22:32 | 10.60283 | -67.04377 | 839 ft | 144 kts | 89° |
| 2026-05-06 22:32 | 10.60318 | -67.03364 | 714 ft | 145 kts | 90° |
| 2026-05-06 22:32 | 10.60360 | -67.02324 | 459 ft | 145 kts | 89° |
| 2026-05-06 22:33 | 10.60382 | -67.01291 | 294 ft | 143 kts | 90° |
| 2026-05-06 22:33 | 10.60405 | -67.00383 | 227 ft | 95 kts | 88° |
| 2026-05-06 22:33 | 10.60415 | -67.00073 | 222 ft | 37 kts | 88° |
| 2026-05-06 22:33 | 10.60428 | -66.99771 | 215 ft | 26 kts | 87° |
| 2026-05-06 22:34 | 10.60426 | -66.99702 | 218 ft | 14 kts | 110° |
| 2026-05-06 22:34 | 10.60326 | -66.99669 | 209 ft | 19 kts | 178° |
| 2026-05-06 22:34 | 10.60180 | -66.99668 | 208 ft | 21 kts | 180° |
| 2026-05-06 22:34 | 10.60047 | -66.99665 | 215 ft | 17 kts | 175° |
| 2026-05-06 22:35 | 10.59938 | -66.99662 | 219 ft | 15 kts | 194° |
| 2026-05-06 22:35 | 10.59886 | -66.99734 | 223 ft | 9 kts | 211° |
| 2026-05-06 22:35 | 10.59880 | -66.99688 | 222 ft | 9 kts | 69° |
| 2026-05-06 22:35 | 10.59936 | -66.99658 | 219 ft | 11 kts | 355° |
| 2026-05-06 22:36 | 10.60012 | -66.99663 | 217 ft | 13 kts | 358° |
| 2026-05-06 22:36 | 10.60113 | -66.99672 | 212 ft | 16 kts | 336° |
| 2026-05-06 22:36 | 10.60138 | -66.99768 | 218 ft | 13 kts | 265° |
| 2026-05-06 22:36 | 10.60133 | -66.99841 | 219 ft | 9 kts | 268° |
| 2026-05-06 22:37 | 10.60128 | -66.99914 | 218 ft | 12 kts | 263° |
| 2026-05-06 22:37 | 10.60118 | -67.00010 | 220 ft | 15 kts | 269° |
| 2026-05-06 22:37 | 10.60116 | -67.00129 | 222 ft | 19 kts | 268° |
| 2026-05-06 22:37 | 10.60106 | -67.00266 | 224 ft | 17 kts | 248° |
| 2026-05-06 22:38 | 10.60004 | -67.00294 | 227 ft | 16 kts | 181° |
| 2026-05-06 22:38 | 10.59905 | -67.00280 | 225 ft | 9 kts | 168° |
| 2026-05-06 22:38 | 10.59850 | -67.00277 | 224 ft | 7 kts | 177° |
| 2026-05-06 22:38 | 10.59826 | -67.00276 | 224 ft | 0 kts | 178° |